sensor_id;sensor_type;location;lat;lon;timestamp;P1;durP1;ratioP1;P2;durP2;ratioP2
7707;SDS011;3896;48.758;8.888;2023-05-20T00:00:48;3.27;;;2.93;;
7707;SDS011;3896;48.758;8.888;2023-05-20T00:03:14;2.93;;;2.60;;
7707;SDS011;3896;48.758;8.888;2023-05-20T00:05:40;5.17;;;3.00;;
7707;SDS011;3896;48.758;8.888;2023-05-20T00:08:06;3.60;;;3.27;;
7707;SDS011;3896;48.758;8.888;2023-05-20T00:10:33;3.33;;;3.03;;
7707;SDS011;3896;48.758;8.888;2023-05-20T00:13:00;4.83;;;2.90;;
7707;SDS011;3896;48.758;8.888;2023-05-20T00:15:26;3.10;;;2.80;;
7707;SDS011;3896;48.758;8.888;2023-05-20T00:17:52;5.30;;;2.63;;
7707;SDS011;3896;48.758;8.888;2023-05-20T00:20:17;3.07;;;2.60;;
7707;SDS011;3896;48.758;8.888;2023-05-20T00:22:43;3.27;;;3.03;;
7707;SDS011;3896;48.758;8.888;2023-05-20T00:25:08;2.80;;;2.33;;
7707;SDS011;3896;48.758;8.888;2023-05-20T00:27:34;5.80;;;3.03;;
7707;SDS011;3896;48.758;8.888;2023-05-20T00:29:59;2.70;;;2.50;;
7707;SDS011;3896;48.758;8.888;2023-05-20T00:32:25;3.13;;;2.80;;
7707;SDS011;3896;48.758;8.888;2023-05-20T00:34:57;2.80;;;2.57;;
7707;SDS011;3896;48.758;8.888;2023-05-20T00:37:23;4.33;;;3.20;;
7707;SDS011;3896;48.758;8.888;2023-05-20T00:39:49;3.07;;;2.77;;
7707;SDS011;3896;48.758;8.888;2023-05-20T00:42:24;4.30;;;3.17;;
7707;SDS011;3896;48.758;8.888;2023-05-20T00:44:51;4.10;;;3.10;;
7707;SDS011;3896;48.758;8.888;2023-05-20T00:47:18;3.60;;;3.03;;
7707;SDS011;3896;48.758;8.888;2023-05-20T00:49:47;5.10;;;3.10;;
7707;SDS011;3896;48.758;8.888;2023-05-20T00:52:15;3.73;;;2.73;;
7707;SDS011;3896;48.758;8.888;2023-05-20T00:54:42;3.43;;;3.13;;
7707;SDS011;3896;48.758;8.888;2023-05-20T00:57:08;2.93;;;2.70;;
7707;SDS011;3896;48.758;8.888;2023-05-20T00:59:37;3.37;;;3.07;;
7707;SDS011;3896;48.758;8.888;2023-05-20T01:02:03;3.57;;;3.27;;
7707;SDS011;3896;48.758;8.888;2023-05-20T01:04:29;3.00;;;2.70;;
7707;SDS011;3896;48.758;8.888;2023-05-20T01:06:55;2.83;;;2.63;;
7707;SDS011;3896;48.758;8.888;2023-05-20T01:09:23;4.23;;;3.13;;
7707;SDS011;3896;48.758;8.888;2023-05-20T01:11:58;3.73;;;3.00;;
7707;SDS011;3896;48.758;8.888;2023-05-20T01:14:30;3.27;;;2.70;;
7707;SDS011;3896;48.758;8.888;2023-05-20T01:17:00;3.60;;;3.30;;
7707;SDS011;3896;48.758;8.888;2023-05-20T01:19:35;4.57;;;2.90;;
7707;SDS011;3896;48.758;8.888;2023-05-20T01:22:08;3.83;;;3.10;;
7707;SDS011;3896;48.758;8.888;2023-05-20T01:24:46;3.10;;;2.80;;
7707;SDS011;3896;48.758;8.888;2023-05-20T01:27:17;3.93;;;3.53;;
7707;SDS011;3896;48.758;8.888;2023-05-20T01:29:44;4.27;;;3.67;;
7707;SDS011;3896;48.758;8.888;2023-05-20T01:32:14;3.20;;;2.90;;
7707;SDS011;3896;48.758;8.888;2023-05-20T01:34:55;5.07;;;2.73;;
7707;SDS011;3896;48.758;8.888;2023-05-20T01:37:23;4.30;;;3.13;;
7707;SDS011;3896;48.758;8.888;2023-05-20T01:39:49;3.50;;;3.17;;
7707;SDS011;3896;48.758;8.888;2023-05-20T01:42:17;5.53;;;3.40;;
7707;SDS011;3896;48.758;8.888;2023-05-20T01:44:44;4.27;;;3.33;;
7707;SDS011;3896;48.758;8.888;2023-05-20T01:47:09;3.87;;;3.40;;
7707;SDS011;3896;48.758;8.888;2023-05-20T01:49:35;5.50;;;3.20;;
7707;SDS011;3896;48.758;8.888;2023-05-20T01:52:00;3.53;;;3.10;;
7707;SDS011;3896;48.758;8.888;2023-05-20T01:54:26;3.63;;;2.90;;
7707;SDS011;3896;48.758;8.888;2023-05-20T01:56:52;3.57;;;3.07;;
7707;SDS011;3896;48.758;8.888;2023-05-20T01:59:17;3.77;;;2.97;;
7707;SDS011;3896;48.758;8.888;2023-05-20T02:01:43;4.80;;;3.30;;
7707;SDS011;3896;48.758;8.888;2023-05-20T02:04:09;3.30;;;3.00;;
7707;SDS011;3896;48.758;8.888;2023-05-20T02:06:35;3.80;;;3.43;;
7707;SDS011;3896;48.758;8.888;2023-05-20T02:09:01;4.57;;;3.37;;
7707;SDS011;3896;48.758;8.888;2023-05-20T02:11:27;3.53;;;3.20;;
7707;SDS011;3896;48.758;8.888;2023-05-20T02:13:53;3.47;;;3.17;;
7707;SDS011;3896;48.758;8.888;2023-05-20T02:16:18;4.70;;;3.47;;
7707;SDS011;3896;48.758;8.888;2023-05-20T02:18:44;6.63;;;3.27;;
7707;SDS011;3896;48.758;8.888;2023-05-20T02:21:09;4.07;;;3.03;;
7707;SDS011;3896;48.758;8.888;2023-05-20T02:23:35;3.37;;;3.07;;
7707;SDS011;3896;48.758;8.888;2023-05-20T02:26:00;3.73;;;3.10;;
7707;SDS011;3896;48.758;8.888;2023-05-20T02:28:26;5.33;;;3.77;;
7707;SDS011;3896;48.758;8.888;2023-05-20T02:30:52;5.03;;;3.47;;
7707;SDS011;3896;48.758;8.888;2023-05-20T02:33:17;3.50;;;3.20;;
7707;SDS011;3896;48.758;8.888;2023-05-20T02:35:43;4.13;;;3.73;;
7707;SDS011;3896;48.758;8.888;2023-05-20T02:38:10;4.83;;;3.10;;
7707;SDS011;3896;48.758;8.888;2023-05-20T02:40:36;4.97;;;3.30;;
7707;SDS011;3896;48.758;8.888;2023-05-20T02:43:02;4.37;;;3.30;;
7707;SDS011;3896;48.758;8.888;2023-05-20T02:45:27;3.10;;;2.80;;
7707;SDS011;3896;48.758;8.888;2023-05-20T02:47:53;3.40;;;3.00;;
7707;SDS011;3896;48.758;8.888;2023-05-20T02:50:18;5.27;;;3.30;;
7707;SDS011;3896;48.758;8.888;2023-05-20T02:52:44;4.10;;;3.73;;
7707;SDS011;3896;48.758;8.888;2023-05-20T02:55:10;3.93;;;3.00;;
7707;SDS011;3896;48.758;8.888;2023-05-20T02:57:36;3.33;;;2.97;;
7707;SDS011;3896;48.758;8.888;2023-05-20T03:00:05;4.77;;;3.03;;
7707;SDS011;3896;48.758;8.888;2023-05-20T03:02:34;5.83;;;3.37;;
7707;SDS011;3896;48.758;8.888;2023-05-20T03:05:00;4.07;;;3.67;;
7707;SDS011;3896;48.758;8.888;2023-05-20T03:07:26;3.23;;;2.93;;
7707;SDS011;3896;48.758;8.888;2023-05-20T03:09:52;3.90;;;3.50;;
7707;SDS011;3896;48.758;8.888;2023-05-20T03:12:17;3.30;;;3.00;;
7707;SDS011;3896;48.758;8.888;2023-05-20T03:14:43;3.40;;;3.00;;
7707;SDS011;3896;48.758;8.888;2023-05-20T03:17:09;4.57;;;3.03;;
7707;SDS011;3896;48.758;8.888;2023-05-20T03:19:35;3.67;;;3.37;;
7707;SDS011;3896;48.758;8.888;2023-05-20T03:22:01;4.03;;;3.63;;
7707;SDS011;3896;48.758;8.888;2023-05-20T03:24:27;3.50;;;3.20;;
7707;SDS011;3896;48.758;8.888;2023-05-20T03:26:53;3.30;;;3.00;;
7707;SDS011;3896;48.758;8.888;2023-05-20T03:29:19;4.03;;;3.07;;
7707;SDS011;3896;48.758;8.888;2023-05-20T03:31:47;4.43;;;3.13;;
7707;SDS011;3896;48.758;8.888;2023-05-20T03:34:12;4.27;;;3.40;;
7707;SDS011;3896;48.758;8.888;2023-05-20T03:36:38;4.63;;;3.33;;
7707;SDS011;3896;48.758;8.888;2023-05-20T03:39:03;3.33;;;3.03;;
7707;SDS011;3896;48.758;8.888;2023-05-20T03:41:29;3.50;;;3.20;;
7707;SDS011;3896;48.758;8.888;2023-05-20T03:43:54;4.17;;;3.77;;
7707;SDS011;3896;48.758;8.888;2023-05-20T03:46:20;4.10;;;3.40;;
7707;SDS011;3896;48.758;8.888;2023-05-20T03:48:45;4.00;;;3.53;;
7707;SDS011;3896;48.758;8.888;2023-05-20T03:51:11;5.20;;;4.70;;
7707;SDS011;3896;48.758;8.888;2023-05-20T03:53:36;4.63;;;3.73;;
7707;SDS011;3896;48.758;8.888;2023-05-20T03:56:02;4.77;;;3.50;;
7707;SDS011;3896;48.758;8.888;2023-05-20T03:58:28;3.53;;;3.23;;
7707;SDS011;3896;48.758;8.888;2023-05-20T04:00:55;3.93;;;3.57;;
7707;SDS011;3896;48.758;8.888;2023-05-20T04:03:20;7.53;;;3.57;;
7707;SDS011;3896;48.758;8.888;2023-05-20T04:05:46;4.37;;;3.70;;
7707;SDS011;3896;48.758;8.888;2023-05-20T04:08:12;4.43;;;3.67;;
7707;SDS011;3896;48.758;8.888;2023-05-20T04:10:39;4.50;;;4.10;;
7707;SDS011;3896;48.758;8.888;2023-05-20T04:13:06;5.40;;;4.03;;
7707;SDS011;3896;48.758;8.888;2023-05-20T04:15:34;5.43;;;3.80;;
7707;SDS011;3896;48.758;8.888;2023-05-20T04:18:00;4.40;;;3.83;;
7707;SDS011;3896;48.758;8.888;2023-05-20T04:20:26;4.23;;;3.27;;
7707;SDS011;3896;48.758;8.888;2023-05-20T04:22:51;7.23;;;3.90;;
7707;SDS011;3896;48.758;8.888;2023-05-20T04:25:18;4.07;;;3.47;;
7707;SDS011;3896;48.758;8.888;2023-05-20T04:27:44;4.97;;;4.17;;
7707;SDS011;3896;48.758;8.888;2023-05-20T04:30:10;4.37;;;3.70;;
7707;SDS011;3896;48.758;8.888;2023-05-20T04:32:36;4.73;;;3.50;;
7707;SDS011;3896;48.758;8.888;2023-05-20T04:35:02;4.63;;;4.07;;
7707;SDS011;3896;48.758;8.888;2023-05-20T04:37:31;4.87;;;3.60;;
7707;SDS011;3896;48.758;8.888;2023-05-20T04:39:57;6.17;;;3.43;;
7707;SDS011;3896;48.758;8.888;2023-05-20T04:42:22;5.60;;;3.93;;
7707;SDS011;3896;48.758;8.888;2023-05-20T04:44:48;5.17;;;3.63;;
7707;SDS011;3896;48.758;8.888;2023-05-20T04:47:14;5.43;;;4.33;;
7707;SDS011;3896;48.758;8.888;2023-05-20T04:49:39;6.17;;;3.93;;
7707;SDS011;3896;48.758;8.888;2023-05-20T04:52:06;7.13;;;3.80;;
7707;SDS011;3896;48.758;8.888;2023-05-20T04:54:31;4.40;;;4.00;;
7707;SDS011;3896;48.758;8.888;2023-05-20T04:56:57;4.03;;;3.67;;
7707;SDS011;3896;48.758;8.888;2023-05-20T04:59:24;6.00;;;4.03;;
7707;SDS011;3896;48.758;8.888;2023-05-20T05:01:49;5.27;;;4.77;;
7707;SDS011;3896;48.758;8.888;2023-05-20T05:04:15;4.40;;;3.37;;
7707;SDS011;3896;48.758;8.888;2023-05-20T05:06:41;4.83;;;4.30;;
7707;SDS011;3896;48.758;8.888;2023-05-20T05:09:06;4.37;;;3.70;;
7707;SDS011;3896;48.758;8.888;2023-05-20T05:11:32;5.13;;;4.50;;
7707;SDS011;3896;48.758;8.888;2023-05-20T05:13:58;5.07;;;3.60;;
7707;SDS011;3896;48.758;8.888;2023-05-20T05:16:24;3.93;;;3.60;;
7707;SDS011;3896;48.758;8.888;2023-05-20T05:18:49;4.77;;;3.67;;
7707;SDS011;3896;48.758;8.888;2023-05-20T05:21:15;4.70;;;4.17;;
7707;SDS011;3896;48.758;8.888;2023-05-20T05:23:41;6.20;;;4.07;;
7707;SDS011;3896;48.758;8.888;2023-05-20T05:26:06;4.70;;;4.00;;
7707;SDS011;3896;48.758;8.888;2023-05-20T05:28:32;5.10;;;4.17;;
7707;SDS011;3896;48.758;8.888;2023-05-20T05:30:58;4.40;;;4.00;;
7707;SDS011;3896;48.758;8.888;2023-05-20T05:33:23;6.10;;;4.70;;
7707;SDS011;3896;48.758;8.888;2023-05-20T05:35:49;6.40;;;3.93;;
7707;SDS011;3896;48.758;8.888;2023-05-20T05:38:15;3.93;;;3.60;;
7707;SDS011;3896;48.758;8.888;2023-05-20T05:40:41;4.20;;;3.80;;
7707;SDS011;3896;48.758;8.888;2023-05-20T05:43:06;6.03;;;4.43;;
7707;SDS011;3896;48.758;8.888;2023-05-20T05:45:32;5.60;;;3.70;;
7707;SDS011;3896;48.758;8.888;2023-05-20T05:47:58;5.80;;;4.13;;
7707;SDS011;3896;48.758;8.888;2023-05-20T05:50:23;4.70;;;4.20;;
7707;SDS011;3896;48.758;8.888;2023-05-20T05:52:49;6.33;;;4.50;;
7707;SDS011;3896;48.758;8.888;2023-05-20T05:55:15;6.30;;;4.20;;
7707;SDS011;3896;48.758;8.888;2023-05-20T05:57:42;5.40;;;3.93;;
7707;SDS011;3896;48.758;8.888;2023-05-20T06:00:07;7.53;;;3.90;;
7707;SDS011;3896;48.758;8.888;2023-05-20T06:02:34;5.10;;;4.60;;
7707;SDS011;3896;48.758;8.888;2023-05-20T06:05:03;5.83;;;3.83;;
7707;SDS011;3896;48.758;8.888;2023-05-20T06:07:29;4.53;;;4.13;;
7707;SDS011;3896;48.758;8.888;2023-05-20T06:09:54;3.83;;;3.47;;
7707;SDS011;3896;48.758;8.888;2023-05-20T06:12:20;5.23;;;4.43;;
7707;SDS011;3896;48.758;8.888;2023-05-20T06:14:46;4.87;;;4.30;;
7707;SDS011;3896;48.758;8.888;2023-05-20T06:17:11;5.73;;;4.53;;
7707;SDS011;3896;48.758;8.888;2023-05-20T06:19:37;4.90;;;4.37;;
7707;SDS011;3896;48.758;8.888;2023-05-20T06:22:03;5.05;;;4.22;;
7707;SDS011;3896;48.758;8.888;2023-05-20T06:24:28;5.80;;;4.47;;
7707;SDS011;3896;48.758;8.888;2023-05-20T06:26:54;6.80;;;4.97;;
7707;SDS011;3896;48.758;8.888;2023-05-20T06:29:19;4.27;;;3.67;;
7707;SDS011;3896;48.758;8.888;2023-05-20T06:31:45;6.70;;;4.90;;
7707;SDS011;3896;48.758;8.888;2023-05-20T06:34:11;5.80;;;4.50;;
7707;SDS011;3896;48.758;8.888;2023-05-20T06:36:36;6.37;;;4.60;;
7707;SDS011;3896;48.758;8.888;2023-05-20T06:39:02;5.97;;;4.50;;
7707;SDS011;3896;48.758;8.888;2023-05-20T06:41:29;5.33;;;4.83;;
7707;SDS011;3896;48.758;8.888;2023-05-20T06:43:55;7.20;;;4.67;;
7707;SDS011;3896;48.758;8.888;2023-05-20T06:46:20;4.53;;;3.97;;
7707;SDS011;3896;48.758;8.888;2023-05-20T06:48:46;4.87;;;4.03;;
7707;SDS011;3896;48.758;8.888;2023-05-20T06:51:11;6.30;;;5.33;;
7707;SDS011;3896;48.758;8.888;2023-05-20T06:53:37;5.40;;;4.90;;
7707;SDS011;3896;48.758;8.888;2023-05-20T06:56:03;5.60;;;4.93;;
7707;SDS011;3896;48.758;8.888;2023-05-20T06:58:29;6.93;;;5.10;;
7707;SDS011;3896;48.758;8.888;2023-05-20T07:00:55;6.23;;;4.47;;
7707;SDS011;3896;48.758;8.888;2023-05-20T07:03:20;4.87;;;4.47;;
7707;SDS011;3896;48.758;8.888;2023-05-20T07:05:47;5.30;;;4.80;;
7707;SDS011;3896;48.758;8.888;2023-05-20T07:08:12;5.87;;;5.00;;
7707;SDS011;3896;48.758;8.888;2023-05-20T07:10:38;6.13;;;4.37;;
7707;SDS011;3896;48.758;8.888;2023-05-20T07:13:03;5.17;;;4.60;;
7707;SDS011;3896;48.758;8.888;2023-05-20T07:15:29;4.87;;;4.40;;
7707;SDS011;3896;48.758;8.888;2023-05-20T07:17:54;5.43;;;4.63;;
7707;SDS011;3896;48.758;8.888;2023-05-20T07:20:20;5.87;;;4.87;;
7707;SDS011;3896;48.758;8.888;2023-05-20T07:22:45;6.50;;;5.00;;
7707;SDS011;3896;48.758;8.888;2023-05-20T07:25:12;5.80;;;4.90;;
7707;SDS011;3896;48.758;8.888;2023-05-20T07:27:38;4.93;;;4.43;;
7707;SDS011;3896;48.758;8.888;2023-05-20T07:30:04;5.20;;;4.63;;
7707;SDS011;3896;48.758;8.888;2023-05-20T07:32:30;6.87;;;4.77;;
7707;SDS011;3896;48.758;8.888;2023-05-20T07:34:56;5.83;;;5.23;;
7707;SDS011;3896;48.758;8.888;2023-05-20T07:37:21;5.03;;;4.53;;
7707;SDS011;3896;48.758;8.888;2023-05-20T07:39:47;5.83;;;4.60;;
7707;SDS011;3896;48.758;8.888;2023-05-20T07:42:12;5.53;;;4.93;;
7707;SDS011;3896;48.758;8.888;2023-05-20T07:44:38;6.40;;;5.30;;
7707;SDS011;3896;48.758;8.888;2023-05-20T07:47:04;8.37;;;5.50;;
7707;SDS011;3896;48.758;8.888;2023-05-20T07:49:29;4.07;;;3.60;;
7707;SDS011;3896;48.758;8.888;2023-05-20T07:51:55;7.17;;;4.90;;
7707;SDS011;3896;48.758;8.888;2023-05-20T07:54:21;7.77;;;5.40;;
7707;SDS011;3896;48.758;8.888;2023-05-20T07:56:47;5.90;;;5.30;;
7707;SDS011;3896;48.758;8.888;2023-05-20T07:59:13;7.10;;;4.73;;
7707;SDS011;3896;48.758;8.888;2023-05-20T08:01:39;5.33;;;4.63;;
7707;SDS011;3896;48.758;8.888;2023-05-20T08:04:06;5.17;;;4.67;;
7707;SDS011;3896;48.758;8.888;2023-05-20T08:06:31;5.23;;;4.67;;
7707;SDS011;3896;48.758;8.888;2023-05-20T08:08:59;5.67;;;4.80;;
7707;SDS011;3896;48.758;8.888;2023-05-20T08:11:25;5.50;;;5.00;;
7707;SDS011;3896;48.758;8.888;2023-05-20T08:13:51;6.47;;;4.80;;
7707;SDS011;3896;48.758;8.888;2023-05-20T08:16:17;5.83;;;4.93;;
7707;SDS011;3896;48.758;8.888;2023-05-20T08:18:42;5.23;;;4.67;;
7707;SDS011;3896;48.758;8.888;2023-05-20T08:21:08;5.60;;;4.63;;
7707;SDS011;3896;48.758;8.888;2023-05-20T08:23:34;4.60;;;4.20;;
7707;SDS011;3896;48.758;8.888;2023-05-20T08:26:00;5.47;;;4.90;;
7707;SDS011;3896;48.758;8.888;2023-05-20T08:28:27;5.13;;;4.63;;
7707;SDS011;3896;48.758;8.888;2023-05-20T08:30:53;5.07;;;4.57;;
7707;SDS011;3896;48.758;8.888;2023-05-20T08:33:19;5.03;;;4.53;;
7707;SDS011;3896;48.758;8.888;2023-05-20T08:35:45;5.63;;;5.03;;
7707;SDS011;3896;48.758;8.888;2023-05-20T08:38:11;6.97;;;4.90;;
7707;SDS011;3896;48.758;8.888;2023-05-20T08:40:37;5.70;;;5.10;;
7707;SDS011;3896;48.758;8.888;2023-05-20T08:43:02;4.83;;;4.23;;
7707;SDS011;3896;48.758;8.888;2023-05-20T08:45:30;6.60;;;4.40;;
7707;SDS011;3896;48.758;8.888;2023-05-20T08:47:57;4.83;;;4.33;;
7707;SDS011;3896;48.758;8.888;2023-05-20T08:50:23;5.87;;;4.47;;
7707;SDS011;3896;48.758;8.888;2023-05-20T08:52:49;6.20;;;4.60;;
7707;SDS011;3896;48.758;8.888;2023-05-20T08:58:11;5.43;;;4.77;;
7707;SDS011;3896;48.758;8.888;2023-05-20T09:00:39;7.27;;;4.50;;
7707;SDS011;3896;48.758;8.888;2023-05-20T09:03:05;4.43;;;3.90;;
7707;SDS011;3896;48.758;8.888;2023-05-20T09:05:32;4.67;;;4.27;;
7707;SDS011;3896;48.758;8.888;2023-05-20T09:08:08;5.43;;;4.93;;
7707;SDS011;3896;48.758;8.888;2023-05-20T09:10:36;4.70;;;4.30;;
7707;SDS011;3896;48.758;8.888;2023-05-20T09:13:03;4.30;;;4.00;;
7707;SDS011;3896;48.758;8.888;2023-05-20T09:15:30;5.17;;;4.37;;
7707;SDS011;3896;48.758;8.888;2023-05-20T09:17:59;6.80;;;5.07;;
7707;SDS011;3896;48.758;8.888;2023-05-20T09:20:26;7.17;;;4.73;;
7707;SDS011;3896;48.758;8.888;2023-05-20T09:23:02;4.47;;;4.07;;
7707;SDS011;3896;48.758;8.888;2023-05-20T09:25:29;6.10;;;4.63;;
7707;SDS011;3896;48.758;8.888;2023-05-20T09:27:55;4.77;;;4.23;;
7707;SDS011;3896;48.758;8.888;2023-05-20T09:30:21;5.97;;;4.27;;
7707;SDS011;3896;48.758;8.888;2023-05-20T09:32:56;4.60;;;4.20;;
7707;SDS011;3896;48.758;8.888;2023-05-20T09:35:23;7.37;;;4.57;;
7707;SDS011;3896;48.758;8.888;2023-05-20T09:37:56;5.87;;;3.93;;
7707;SDS011;3896;48.758;8.888;2023-05-20T09:40:23;4.33;;;3.93;;
7707;SDS011;3896;48.758;8.888;2023-05-20T09:43:23;3.90;;;3.60;;
7707;SDS011;3896;48.758;8.888;2023-05-20T09:45:42;4.27;;;3.87;;
7707;SDS011;3896;48.758;8.888;2023-05-20T09:48:08;4.87;;;4.20;;
7707;SDS011;3896;48.758;8.888;2023-05-20T09:50:35;4.80;;;4.33;;
7707;SDS011;3896;48.758;8.888;2023-05-20T09:53:01;4.97;;;4.43;;
7707;SDS011;3896;48.758;8.888;2023-05-20T09:55:28;5.30;;;4.50;;
7707;SDS011;3896;48.758;8.888;2023-05-20T09:57:54;4.40;;;4.00;;
7707;SDS011;3896;48.758;8.888;2023-05-20T10:00:20;5.70;;;4.13;;
7707;SDS011;3896;48.758;8.888;2023-05-20T10:02:46;4.30;;;3.90;;
7707;SDS011;3896;48.758;8.888;2023-05-20T10:05:16;4.57;;;4.03;;
7707;SDS011;3896;48.758;8.888;2023-05-20T10:07:55;4.07;;;3.67;;
7707;SDS011;3896;48.758;8.888;2023-05-20T10:13:37;4.93;;;3.90;;
7707;SDS011;3896;48.758;8.888;2023-05-20T10:21:54;4.70;;;4.30;;
7707;SDS011;3896;48.758;8.888;2023-05-20T10:24:34;3.80;;;3.40;;
7707;SDS011;3896;48.758;8.888;2023-05-20T10:27:08;4.27;;;3.50;;
7707;SDS011;3896;48.758;8.888;2023-05-20T10:29:45;3.67;;;3.37;;
7707;SDS011;3896;48.758;8.888;2023-05-20T10:32:26;4.47;;;4.07;;
7707;SDS011;3896;48.758;8.888;2023-05-20T10:34:57;4.53;;;4.07;;
7707;SDS011;3896;48.758;8.888;2023-05-20T10:37:27;4.13;;;3.73;;
7707;SDS011;3896;48.758;8.888;2023-05-20T10:40:10;3.70;;;3.40;;
7707;SDS011;3896;48.758;8.888;2023-05-20T10:42:37;4.47;;;4.07;;
7707;SDS011;3896;48.758;8.888;2023-05-20T10:45:03;4.47;;;3.60;;
7707;SDS011;3896;48.758;8.888;2023-05-20T10:47:30;3.90;;;3.50;;
7707;SDS011;3896;48.758;8.888;2023-05-20T10:49:56;4.33;;;3.87;;
7707;SDS011;3896;48.758;8.888;2023-05-20T10:52:22;4.43;;;3.50;;
7707;SDS011;3896;48.758;8.888;2023-05-20T10:54:55;3.77;;;3.47;;
7707;SDS011;3896;48.758;8.888;2023-05-20T10:57:21;4.00;;;3.60;;
7707;SDS011;3896;48.758;8.888;2023-05-20T10:59:48;4.93;;;3.80;;
7707;SDS011;3896;48.758;8.888;2023-05-20T11:02:15;4.37;;;3.93;;
7707;SDS011;3896;48.758;8.888;2023-05-20T11:04:44;3.83;;;3.53;;
7707;SDS011;3896;48.758;8.888;2023-05-20T11:07:11;4.50;;;4.10;;
7707;SDS011;3896;48.758;8.888;2023-05-20T11:09:37;4.87;;;3.80;;
7707;SDS011;3896;48.758;8.888;2023-05-20T11:12:03;3.10;;;2.90;;
7707;SDS011;3896;48.758;8.888;2023-05-20T11:14:28;3.60;;;3.30;;
7707;SDS011;3896;48.758;8.888;2023-05-20T11:16:55;3.63;;;3.33;;
7707;SDS011;3896;48.758;8.888;2023-05-20T11:19:22;3.97;;;3.67;;
7707;SDS011;3896;48.758;8.888;2023-05-20T11:21:47;3.90;;;3.50;;
7707;SDS011;3896;48.758;8.888;2023-05-20T11:24:13;3.83;;;3.53;;
7707;SDS011;3896;48.758;8.888;2023-05-20T11:26:46;3.83;;;3.50;;
7707;SDS011;3896;48.758;8.888;2023-05-20T11:29:12;4.17;;;3.77;;
7707;SDS011;3896;48.758;8.888;2023-05-20T11:31:38;4.63;;;3.50;;
7707;SDS011;3896;48.758;8.888;2023-05-20T11:34:03;4.83;;;4.13;;
7707;SDS011;3896;48.758;8.888;2023-05-20T11:36:29;4.67;;;3.97;;
7707;SDS011;3896;48.758;8.888;2023-05-20T11:38:58;4.27;;;3.20;;
7707;SDS011;3896;48.758;8.888;2023-05-20T11:41:24;4.23;;;3.87;;
7707;SDS011;3896;48.758;8.888;2023-05-20T11:43:57;4.00;;;3.70;;
7707;SDS011;3896;48.758;8.888;2023-05-20T11:46:23;3.53;;;3.23;;
7707;SDS011;3896;48.758;8.888;2023-05-20T11:48:50;3.70;;;3.40;;
7707;SDS011;3896;48.758;8.888;2023-05-20T11:51:22;3.90;;;3.50;;
7707;SDS011;3896;48.758;8.888;2023-05-20T11:53:49;3.93;;;3.33;;
7707;SDS011;3896;48.758;8.888;2023-05-20T11:56:14;3.57;;;3.27;;
7707;SDS011;3896;48.758;8.888;2023-05-20T11:58:40;3.83;;;3.53;;
7707;SDS011;3896;48.758;8.888;2023-05-20T12:01:08;4.00;;;3.57;;
7707;SDS011;3896;48.758;8.888;2023-05-20T12:03:33;3.67;;;3.37;;
7707;SDS011;3896;48.758;8.888;2023-05-20T12:05:59;3.60;;;3.30;;
7707;SDS011;3896;48.758;8.888;2023-05-20T12:08:26;4.20;;;3.77;;
7707;SDS011;3896;48.758;8.888;2023-05-20T12:10:52;3.30;;;3.00;;
7707;SDS011;3896;48.758;8.888;2023-05-20T12:13:18;4.13;;;3.53;;
7707;SDS011;3896;48.758;8.888;2023-05-20T12:15:43;3.13;;;2.93;;
7707;SDS011;3896;48.758;8.888;2023-05-20T12:18:09;3.60;;;3.30;;
7707;SDS011;3896;48.758;8.888;2023-05-20T12:20:35;3.90;;;3.60;;
7707;SDS011;3896;48.758;8.888;2023-05-20T12:23:01;3.77;;;3.47;;
7707;SDS011;3896;48.758;8.888;2023-05-20T12:25:27;4.57;;;3.43;;
7707;SDS011;3896;48.758;8.888;2023-05-20T12:27:52;3.73;;;3.37;;
7707;SDS011;3896;48.758;8.888;2023-05-20T12:30:20;3.67;;;3.37;;
7707;SDS011;3896;48.758;8.888;2023-05-20T12:32:47;3.80;;;3.20;;
7707;SDS011;3896;48.758;8.888;2023-05-20T12:35:15;5.67;;;4.33;;
7707;SDS011;3896;48.758;8.888;2023-05-20T12:37:41;3.53;;;3.23;;
7707;SDS011;3896;48.758;8.888;2023-05-20T12:40:08;4.27;;;3.90;;
7707;SDS011;3896;48.758;8.888;2023-05-20T12:42:35;4.57;;;3.70;;
7707;SDS011;3896;48.758;8.888;2023-05-20T12:45:01;3.50;;;3.20;;
7707;SDS011;3896;48.758;8.888;2023-05-20T12:47:27;4.47;;;4.07;;
7707;SDS011;3896;48.758;8.888;2023-05-20T12:49:53;3.55;;;3.22;;
7707;SDS011;3896;48.758;8.888;2023-05-20T12:52:18;2.97;;;2.77;;
7707;SDS011;3896;48.758;8.888;2023-05-20T12:54:44;3.42;;;3.13;;
7707;SDS011;3896;48.758;8.888;2023-05-20T12:57:10;3.90;;;3.60;;
7707;SDS011;3896;48.758;8.888;2023-05-20T12:59:35;3.40;;;3.10;;
7707;SDS011;3896;48.758;8.888;2023-05-20T13:02:01;3.40;;;2.92;;
7707;SDS011;3896;48.758;8.888;2023-05-20T13:04:27;4.73;;;3.27;;
7707;SDS011;3896;48.758;8.888;2023-05-20T13:06:52;4.28;;;2.90;;
7707;SDS011;3896;48.758;8.888;2023-05-20T13:09:18;3.45;;;3.25;;
7707;SDS011;3896;48.758;8.888;2023-05-20T13:11:44;3.60;;;3.30;;
7707;SDS011;3896;48.758;8.888;2023-05-20T13:14:10;3.53;;;3.33;;
7707;SDS011;3896;48.758;8.888;2023-05-20T13:16:36;3.67;;;3.13;;
7707;SDS011;3896;48.758;8.888;2023-05-20T13:19:02;3.83;;;3.53;;
7707;SDS011;3896;48.758;8.888;2023-05-20T13:21:27;3.58;;;3.28;;
7707;SDS011;3896;48.758;8.888;2023-05-20T13:23:53;4.00;;;3.60;;
7707;SDS011;3896;48.758;8.888;2023-05-20T13:26:18;3.85;;;3.55;;
7707;SDS011;3896;48.758;8.888;2023-05-20T13:28:44;3.55;;;3.25;;
7707;SDS011;3896;48.758;8.888;2023-05-20T13:31:10;3.10;;;2.90;;
7707;SDS011;3896;48.758;8.888;2023-05-20T13:33:35;3.60;;;3.30;;
7707;SDS011;3896;48.758;8.888;2023-05-20T13:36:01;4.75;;;3.30;;
7707;SDS011;3896;48.758;8.888;2023-05-20T13:38:26;3.95;;;3.55;;
7707;SDS011;3896;48.758;8.888;2023-05-20T13:40:52;3.78;;;3.35;;
7707;SDS011;3896;48.758;8.888;2023-05-20T13:43:18;3.47;;;3.17;;
7707;SDS011;3896;48.758;8.888;2023-05-20T13:45:43;2.85;;;2.65;;
7707;SDS011;3896;48.758;8.888;2023-05-20T13:48:09;5.38;;;2.97;;
7707;SDS011;3896;48.758;8.888;2023-05-20T13:50:35;4.22;;;3.63;;
7707;SDS011;3896;48.758;8.888;2023-05-20T13:53:00;4.35;;;3.70;;
7707;SDS011;3896;48.758;8.888;2023-05-20T13:55:26;3.88;;;3.58;;
7707;SDS011;3896;48.758;8.888;2023-05-20T13:57:52;4.38;;;3.63;;
7707;SDS011;3896;48.758;8.888;2023-05-20T14:00:18;3.45;;;3.20;;
7707;SDS011;3896;48.758;8.888;2023-05-20T14:02:44;3.42;;;3.13;;
7707;SDS011;3896;48.758;8.888;2023-05-20T14:05:11;4.97;;;3.40;;
7707;SDS011;3896;48.758;8.888;2023-05-20T14:07:37;3.38;;;3.17;;
7707;SDS011;3896;48.758;8.888;2023-05-20T14:10:03;4.82;;;3.70;;
7707;SDS011;3896;48.758;8.888;2023-05-20T14:12:29;3.75;;;3.10;;
7707;SDS011;3896;48.758;8.888;2023-05-20T14:14:55;3.67;;;3.38;;
7707;SDS011;3896;48.758;8.888;2023-05-20T14:17:21;3.55;;;3.25;;
7707;SDS011;3896;48.758;8.888;2023-05-20T14:19:47;4.05;;;3.75;;
7707;SDS011;3896;48.758;8.888;2023-05-20T14:22:12;3.95;;;3.30;;
7707;SDS011;3896;48.758;8.888;2023-05-20T14:24:39;3.40;;;3.03;;
7707;SDS011;3896;48.758;8.888;2023-05-20T14:27:05;4.53;;;3.42;;
7707;SDS011;3896;48.758;8.888;2023-05-20T14:29:30;3.85;;;3.05;;
7707;SDS011;3896;48.758;8.888;2023-05-20T14:31:56;3.72;;;3.10;;
7707;SDS011;3896;48.758;8.888;2023-05-20T14:34:21;3.80;;;3.20;;
7707;SDS011;3896;48.758;8.888;2023-05-20T14:36:47;3.97;;;3.20;;
7707;SDS011;3896;48.758;8.888;2023-05-20T14:39:12;3.25;;;3.03;;
7707;SDS011;3896;48.758;8.888;2023-05-20T14:41:38;3.35;;;3.05;;
7707;SDS011;3896;48.758;8.888;2023-05-20T14:44:04;3.80;;;3.50;;
7707;SDS011;3896;48.758;8.888;2023-05-20T14:46:29;3.33;;;3.03;;
7707;SDS011;3896;48.758;8.888;2023-05-20T14:48:55;3.15;;;2.95;;
7707;SDS011;3896;48.758;8.888;2023-05-20T14:51:20;4.05;;;3.38;;
7707;SDS011;3896;48.758;8.888;2023-05-20T14:53:46;3.20;;;2.97;;
7707;SDS011;3896;48.758;8.888;2023-05-20T14:56:12;3.55;;;3.30;;
7707;SDS011;3896;48.758;8.888;2023-05-20T14:58:37;3.70;;;2.90;;
7707;SDS011;3896;48.758;8.888;2023-05-20T15:01:03;3.30;;;2.90;;
7707;SDS011;3896;48.758;8.888;2023-05-20T15:03:29;3.97;;;2.90;;
7707;SDS011;3896;48.758;8.888;2023-05-20T15:05:54;3.72;;;2.65;;
7707;SDS011;3896;48.758;8.888;2023-05-20T15:08:20;2.92;;;2.60;;
7707;SDS011;3896;48.758;8.888;2023-05-20T15:10:46;3.08;;;2.88;;
7707;SDS011;3896;48.758;8.888;2023-05-20T15:13:11;3.55;;;3.30;;
7707;SDS011;3896;48.758;8.888;2023-05-20T15:15:37;3.53;;;3.25;;
7707;SDS011;3896;48.758;8.888;2023-05-20T15:18:02;3.85;;;3.50;;
7707;SDS011;3896;48.758;8.888;2023-05-20T15:20:28;3.70;;;3.20;;
7707;SDS011;3896;48.758;8.888;2023-05-20T15:22:53;4.00;;;3.70;;